Data for 09/16/2009

Time Sea-Level Adjusted Pressure Absolute Pressure Temperature Relative Humidity Dew Point   
(mb) (inHg) (mb) (inHg) (C) (F) (%) (C) (F)
00:05 1026 30.3 855 25.25 19.7 67.4 35 3.8 38.9
00:10 1026 30.3 855 25.25 19.6 67.2 35 3.8 38.9
00:15 1026 30.3 855 25.25 19.5 67.1 35 3.9 39
00:20 1026 30.3 855 25.25 19.4 66.8 36 4.1 39.3
00:25 1026 30.3 855 25.25 19.3 66.7 36 4 39.1
00:30 1026 30.3 855 25.25 19.2 66.6 36 3.8 38.9
00:35 1026 30.3 855 25.25 19.2 66.6 36 4 39.2
00:40 1026 30.3 855 25.25 19.3 66.8 35 3.7 38.7
00:45 1026 30.3 855 25.25 19.5 67 35 3.8 38.8
00:50 1026 30.3 855 25.25 19.5 67 35 3.9 39
00:55 1026 30.3 855 25.25 19.4 67 35 3.8 38.8
01:00 1026 30.3 855 25.25 19.4 67 36 4 39.2
01:05 1026 30.3 855 25.25 19.3 66.8 36 3.9 39
01:10 1026 30.3 855 25.25 19.2 66.6 36 4 39.2
01:15 1026 30.3 855 25.25 19.1 66.4 37 4.2 39.6
01:20 1026 30.3 856 25.28 19 66.1 37 4 39.3
01:25 1026 30.3 855 25.25 19.1 66.4 37 4.1 39.4
01:30 1026 30.3 856 25.28 19 66.2 37 4.1 39.3
01:35 1026 30.3 856 25.28 19 66.1 37 4 39.3
01:40 1027 30.33 856 25.28 18.9 66.1 37 4.2 39.5
01:45 1027 30.33 856 25.28 18.8 65.9 38 4.2 39.6
01:50 1027 30.33 856 25.28 18.8 65.9 37 4.2 39.5
01:55 1027 30.33 856 25.28 18.8 65.8 37 4.1 39.4
02:00 1027 30.33 856 25.28 18.8 65.8 38 4.2 39.6
02:05 1027 30.33 856 25.28 18.8 65.8 38 4.3 39.7
02:10 1027 30.33 856 25.28 18.8 65.8 38 4.3 39.7
02:15 1027 30.33 856 25.28 18.7 65.7 38 4.3 39.8
02:20 1027 30.33 856 25.28 18.6 65.6 38 4.3 39.8
02:25 1027 30.33 856 25.28 18.5 65.4 38 4.2 39.5
02:30 1027 30.33 856 25.28 18.5 65.3 39 4.3 39.7
02:35 1027 30.33 856 25.28 18.5 65.3 39 4.3 39.7
02:40 1027 30.33 856 25.28 18.4 65.2 39 4.3 39.7
02:45 1027 30.33 856 25.28 18.4 65.2 39 4.4 40
02:50 1026 30.3 856 25.28 18.3 64.9 39 4.4 39.9
02:55 1026 30.3 856 25.28 18.3 64.9 39 4.4 39.9
03:00 1026 30.3 856 25.28 18.1 64.6 40 4.5 40.1
03:05 1026 30.3 856 25.28 18.1 64.7 40 4.4 39.9
03:10 1026 30.3 856 25.28 18.1 64.5 40 4.5 40.1
03:15 1026 30.3 856 25.28 18 64.4 40 4.5 40
03:20 1026 30.3 856 25.28 18 64.4 41 4.6 40.2
03:25 1026 30.3 856 25.28 17.9 64.3 41 4.5 40
03:30 1026 30.3 856 25.28 18 64.3 41 4.5 40.1
03:35 1026 30.3 855 25.25 17.9 64.3 41 4.5 40.2
03:40 1026 30.3 855 25.25 18 64.4 41 4.5 40.1
03:45 1026 30.3 855 25.25 18 64.3 41 4.6 40.4
03:50 1026 30.3 855 25.25 17.9 64.3 40 4.4 39.9
03:55 1026 30.3 855 25.25 18 64.5 41 4.5 40.2
04:00 1026 30.3 855 25.25 17.9 64.3 41 4.5 40.1
04:05 1026 30.3 855 25.25 18 64.3 41 4.5 40.2
04:10 1026 30.3 855 25.25 18 64.4 41 4.6 40.3
04:15 1026 30.3 855 25.25 18 64.4 40 4.5 40.1
04:20 1026 30.3 856 25.28 18 64.4 41 4.6 40.3
04:25 1026 30.3 856 25.28 18 64.3 41 4.6 40.3
04:30 1026 30.3 856 25.28 17.9 64.2 41 4.6 40.3
04:35 1026 30.3 855 25.25 17.8 64.1 41 4.7 40.4
04:40 1026 30.3 856 25.28 17.8 64 42 4.7 40.5
04:45 1026 30.3 856 25.28 17.7 63.8 42 4.8 40.7
04:50 1026 30.3 856 25.28 17.6 63.6 43 5.1 41.2
04:55 1026 30.3 856 25.28 17.6 63.7 43 5 41
05:00 1026 30.3 856 25.28 17.6 63.8 43 5 41
05:05 1026 30.3 855 25.25 17.7 63.9 43 5 40.9
05:10 1026 30.3 855 25.25 17.7 63.8 43 5 41.1
05:15 1026 30.3 855 25.25 17.5 63.5 43 5 41
05:20 1026 30.3 855 25.25 17.4 63.3 44 5.2 41.4
05:25 1026 30.3 856 25.28 17.3 63.1 44 5.2 41.3
05:30 1026 30.3 856 25.28 17.3 63.2 45 5.3 41.5
05:35 1026 30.3 856 25.28 17.3 63.1 45 5.4 41.7
05:40 1026 30.3 856 25.28 17.1 62.8 47 5.7 42.2
05:45 1026 30.3 856 25.28 16.9 62.5 47 5.8 42.4
05:50 1027 30.33 856 25.28 16.9 62.4 48 5.9 42.7
05:55 1027 30.33 856 25.28 16.9 62.5 48 6 42.8
06:00 1027 30.33 856 25.28 16.9 62.4 49 6.3 43.3
06:05 1027 30.33 856 25.28 16.5 61.7 52 6.8 44.2
06:10 1026 30.3 856 25.28 16.2 61.1 52 6.5 43.8
06:15 1026 30.3 856 25.28 16 60.8 53 6.6 43.9
06:20 1026 30.3 856 25.28 16 60.7 54 6.6 43.9
06:25 1026 30.3 856 25.28 15.9 60.6 54 6.7 44.1
06:30 1026 30.3 856 25.28 15.9 60.6 54 6.7 44.1
06:35 1026 30.3 856 25.28 16 60.8 54 6.8 44.2
06:40 1026 30.3 856 25.28 15.8 60.5 55 7 44.6
06:45 1026 30.3 856 25.28 15.5 59.9 61 8.1 46.6
06:50 1026 30.3 856 25.28 15.3 59.6 57 6.9 44.5
06:55 1026 30.3 856 25.28 15.5 59.8 56 6.8 44.2
07:00 1026 30.3 856 25.28 15.4 59.7 56 6.8 44.3
07:05 1026 30.3 856 25.28 15.3 59.5 57 6.8 44.3
07:10 1026 30.3 856 25.28 15.2 59.4 57 6.9 44.5
07:15 1027 30.33 856 25.28 14.8 58.6 59 7 44.6
07:20 1027 30.33 856 25.28 14.5 58.1 61 7.1 44.8
07:25 1027 30.33 856 25.28 14.5 58.1 60 6.9 44.5
07:30 1027 30.33 856 25.28 14.6 58.3 60 6.9 44.5
07:35 1027 30.33 856 25.28 14.8 58.6 58 6.7 44.1
07:40 1027 30.33 856 25.28 14.7 58.4 59 6.9 44.4
07:45 1027 30.33 856 25.28 14.7 58.4 58 6.7 44
07:50 1027 30.33 856 25.28 14.8 58.7 58 6.8 44.2
07:55 1027 30.33 856 25.28 14.8 58.7 58 6.7 44.1
08:00 1027 30.33 856 25.28 15.1 59.3 56 6.6 43.8
08:05 1027 30.33 856 25.28 15.5 59.8 55 6.6 43.9
08:10 1027 30.33 856 25.28 15.9 60.6 54 6.5 43.8
08:15 1027 30.33 856 25.28 16.5 61.6 53 6.9 44.4
08:20 1027 30.33 856 25.28 16.8 62.2 52 7 44.6
08:25 1027 30.33 856 25.28 16.9 62.4 52 7.1 44.8
08:30 1027 30.33 856 25.28 17.1 62.7 51 7 44.7
08:35 1027 30.33 856 25.28 17.4 63.3 49 6.7 44
08:40 1027 30.33 856 25.28 17.8 64.1 48 6.7 44.1
08:45 1027 30.33 856 25.28 17.9 64.2 49 7.1 44.7
08:50 1027 30.33 856 25.28 18 64.4 45 6 42.8
08:55 1027 30.33 856 25.28 18.4 65.1 44 6 42.8
09:00 1027 30.33 856 25.28 18.8 65.8 42 5.8 42.4
09:05 1027 30.33 856 25.28 19.3 66.7 41 5.7 42.3
09:10 1027 30.33 856 25.28 19.9 67.8 41 6.5 43.7
09:15 1027 30.33 856 25.28 19.9 67.9 43 7.1 44.7
09:20 1027 30.33 856 25.28 19.7 67.5 41 6.4 43.5
09:25 1027 30.33 856 25.28 20 68 40 6 42.8
09:30 1027 30.33 856 25.28 20.1 68.1 41 6.5 43.6
09:35 1027 30.33 856 25.28 20 67.9 40 6.1 43
09:40 1027 30.33 856 25.28 19.5 67.2 40 5.7 42.3
09:45 1027 30.33 856 25.28 19.8 67.6 39 5.7 42.3
09:50 1027 30.33 856 25.28 20.5 68.8 40 6.7 44.1
09:55 1027 30.33 856 25.28 20.9 69.5 37 6 42.7
10:00 1027 30.33 856 25.28 21.1 70.1 37 5.9 42.6
10:05 1027 30.33 856 25.28 21 69.8 38 6.4 43.5
10:10 1027 30.33 856 25.28 21.4 70.4 36 5.8 42.4
10:15 1027 30.33 856 25.28 21.7 71.1 35 5.7 42.3
10:20 1027 30.33 856 25.28 21.8 71.3 35 5.9 42.5
10:25 1027 30.33 856 25.28 21.1 70.1 37 6 42.8
10:30 1027 30.33 856 25.28 22 71.6 35 6 42.7
10:35 1027 30.33 856 25.28 22.3 72.1 34 6 42.7
10:40 1026 30.3 856 25.28 22.6 72.7 34 6 42.8
10:45 1026 30.3 856 25.28 22.9 73.1 33 6 42.9
10:50 1026 30.3 856 25.28 23 73.5 35 6.8 44.3
10:55 1026 30.3 856 25.28 22.9 73.2 34 6.6 43.9
11:00 1026 30.3 856 25.28 22.9 73.2 33 6.2 43.1
11:05 1026 30.3 856 25.28 23.5 74.3 33 6.5 43.8
11:10 1026 30.3 856 25.28 23.8 74.8 33 6.6 43.9
11:15 1026 30.3 856 25.28 23.4 74.1 33 6.6 43.9
11:20 1026 30.3 855 25.25 23.5 74.3 33 6.6 44
11:25 1026 30.3 855 25.25 23.7 74.7 33 6.5 43.7
11:30 1026 30.3 855 25.25 23.9 74.9 33 6.7 44
11:35 1026 30.3 855 25.25 24.2 75.5 32 6.6 43.9
11:40 1026 30.3 855 25.25 24 75.2 33 7.1 44.8
11:45 1026 30.3 855 25.25 23.8 74.8 33 6.7 44
11:50 1026 30.3 855 25.25 24 75.2 34 7.2 45
11:55 1026 30.3 855 25.25 23.7 74.7 33 6.7 44
12:00 1026 30.3 855 25.25 23.5 74.3 35 7.3 45.2
12:05 1026 30.3 855 25.25 22.5 72.6 36 6.9 44.4
12:10 1026 30.3 855 25.25 23.3 73.9 34 6.9 44.4
12:15 1026 30.3 855 25.25 23.8 74.8 33 6.8 44.2
12:20 1026 30.3 855 25.25 24.1 75.4 32 6.5 43.8
12:25 1026 30.3 855 25.25 25.1 77.2 30 6.7 44
12:30 1025 30.27 855 25.25 25.1 77.2 31 6.9 44.4
12:35 1025 30.27 855 25.25 25.8 78.4 29 6.7 44.1
12:40 1025 30.27 854 25.22 26 78.7 29 7 44.6
12:45 1025 30.27 854 25.22 25.1 77.2 29 6.3 43.3
12:50 1025 30.27 854 25.22 25.7 78.3 29 6.7 44.1
12:55 1025 30.27 854 25.22 25.3 77.6 31 7.1 44.8
13:00 1025 30.27 854 25.22 25.3 77.5 30 6.9 44.4
13:05 1025 30.27 854 25.22 25.7 78.3 29 6.5 43.8
13:10 1025 30.27 854 25.22 26.4 79.5 28 6.5 43.7
13:15 1025 30.27 854 25.22 26.5 79.6 29 7.1 44.7
13:20 1025 30.27 854 25.22 27.2 81 27 7.1 44.9
13:25 1025 30.27 854 25.22 27.4 81.3 27 6.8 44.3
13:30 1025 30.27 854 25.22 27.9 82.2 26 7.2 44.9
13:35 1025 30.27 854 25.22 27.9 82.2 27 7.3 45.2
13:40 1025 30.27 854 25.22 27.9 82.2 26 7.1 44.8
13:45 1024 30.24 854 25.22 28.4 83.1 25 7.1 44.7
13:50 1024 30.24 854 25.22 27.3 81.2 28 7.3 45.2
13:55 1024 30.24 854 25.22 26.9 80.5 27 6.7 44
14:00 1024 30.24 854 25.22 27.5 81.5 27 7 44.6
14:05 1024 30.24 853 25.19 27.7 81.8 27 7.4 45.3
14:10 1024 30.24 853 25.19 27.3 81.1 27 6.7 44.1
14:15 1024 30.24 853 25.19 27.6 81.7 27 7.2 45
14:20 1024 30.24 853 25.19 27.8 82.1 27 7.4 45.4
14:25 1024 30.24 853 25.19 27.7 81.9 27 7.3 45.1
14:30 1024 30.24 853 25.19 27.7 81.9 24 5.9 42.6
14:35 1024 30.24 853 25.19 27.4 81.3 25 5.8 42.4
14:40 1024 30.24 853 25.19 27.3 81.2 24 5.3 41.6
14:45 1024 30.24 853 25.19 27.9 82.2 25 6.1 42.9
14:50 1024 30.24 853 25.19 27.8 82 24 5.9 42.6
14:55 1024 30.24 853 25.19 28.1 82.5 23 5.3 41.5
15:00 1024 30.24 853 25.19 28 82.3 23 5.3 41.6
15:05 1024 30.24 853 25.19 27.8 82 23 5 41
15:10 1024 30.24 853 25.19 28.4 83.1 22 5 41.1
15:15 1024 30.24 853 25.19 27.9 82.2 23 5.2 41.3
15:20 1024 30.24 853 25.19 28.5 83.2 22 4.8 40.6
15:25 1024 30.24 853 25.19 28.8 83.8 22 5.1 41.3
15:30 1024 30.24 853 25.19 28.5 83.2 23 5.5 41.9
15:35 1024 30.24 853 25.19 28.1 82.5 23 5.5 42
15:40 1023 30.21 853 25.19 28 82.4 24 5.6 42.1
15:45 1023 30.21 853 25.19 28.2 82.7 23 5.6 42.1
15:50 1023 30.21 853 25.19 28.3 82.9 22 5 40.9
15:55 1023 30.21 853 25.19 28 82.5 22 4.6 40.3
16:00 1023 30.21 853 25.19 28.4 83 22 5.2 41.4
16:05 1023 30.21 852 25.16 28.4 83.1 23 5.5 41.9
16:10 1023 30.21 852 25.16 27.9 82.3 24 5.6 42.1
16:15 1023 30.21 852 25.16 27.7 81.9 23 5.3 41.5
16:20 1023 30.21 852 25.16 27.4 81.4 24 5.3 41.5
16:25 1023 30.21 852 25.16 27.6 81.6 23 5 41.1
16:30 1023 30.21 852 25.16 27.7 81.9 23 4.8 40.7
16:35 1023 30.21 852 25.16 27.7 81.8 24 5.4 41.7
16:40 1023 30.21 852 25.16 27.6 81.7 23 5 41
16:45 1023 30.21 852 25.16 27.8 82 23 5.1 41.2
16:50 1023 30.21 852 25.16 27.8 82.1 23 5.1 41.2
16:55 1023 30.21 852 25.16 27.9 82.2 22 4.8 40.7
17:00 1023 30.21 852 25.16 28 82.3 23 5.1 41.2
17:05 1023 30.21 852 25.16 27.7 81.9 23 4.9 40.9
17:10 1023 30.21 852 25.16 27.3 81.2 24 5.1 41.1
17:15 1023 30.21 852 25.16 27.3 81.1 24 5.2 41.4
17:20 1023 30.21 852 25.16 27.3 81.2 23 4.9 40.8
17:25 1023 30.21 852 25.16 27.4 81.3 23 4.7 40.5
17:30 1023 30.21 852 25.16 27.2 81 23 4.6 40.4
17:35 1023 30.21 852 25.16 27.2 80.9 23 4.6 40.3
17:40 1023 30.21 852 25.16 27.1 80.9 23 4.8 40.6
17:45 1023 30.21 852 25.16 27.2 81 24 5 41
17:50 1023 30.21 852 25.16 27.3 81.2 23 4.7 40.5
17:55 1023 30.21 852 25.16 27.2 81 23 4.5 40.2
18:00 1023 30.21 852 25.16 27.1 80.8 23 4.3 39.7
18:05 1023 30.21 852 25.16 27 80.6 23 4.3 39.8
18:10 1023 30.21 852 25.16 27 80.5 23 4.5 40.1
18:15 1023 30.21 852 25.16 26.9 80.5 23 4.4 39.9
18:20 1023 30.21 852 25.16 26.9 80.4 24 4.8 40.6
18:25 1023 30.21 852 25.16 26.7 80.1 24 5 41
18:30 1023 30.21 852 25.16 26.5 79.7 24 4.9 40.8
18:35 1023 30.21 852 25.16 26.3 79.3 25 5 41.1
18:40 1023 30.21 852 25.16 26.2 79.1 25 5.1 41.2
18:45 1023 30.21 852 25.16 26 78.8 25 4.8 40.7
18:50 1023 30.21 852 25.16 26 78.7 26 5.1 41.1
18:55 1023 30.21 852 25.16 25.8 78.5 26 5 41
19:00 1023 30.21 852 25.16 25.7 78.2 26 5.1 41.2
19:05 1022 30.18 852 25.16 25.5 78 26 5.1 41.1
19:10 1022 30.18 852 25.16 25.5 77.8 27 5.1 41.2
19:15 1022 30.18 852 25.16 25.3 77.6 26 4.8 40.7
19:20 1022 30.18 852 25.16 25.3 77.6 27 5.1 41.2
19:25 1022 30.18 852 25.16 25.2 77.3 27 4.9 40.7
19:30 1022 30.18 852 25.16 25.1 77.1 27 5 41
19:35 1022 30.18 852 25.16 24.8 76.7 28 5.2 41.3
19:40 1022 30.18 852 25.16 24.6 76.2 28 5.2 41.4
19:45 1022 30.18 852 25.16 24.3 75.8 28 5.1 41.3
19:50 1022 30.18 852 25.16 24.2 75.6 28 5 41
19:55 1022 30.18 852 25.16 24.1 75.3 29 5.1 41.1
20:00 1022 30.18 852 25.16 23.8 74.8 29 5 40.9
20:05 1022 30.18 852 25.16 23.7 74.7 29 4.7 40.4
20:10 1022 30.18 852 25.16 23.8 74.8 28 4.4 40
20:15 1022 30.18 852 25.16 23.8 74.9 27 4.1 39.4
20:20 1022 30.18 852 25.16 23.7 74.7 28 4.2 39.5
20:25 1022 30.18 852 25.16 23.5 74.4 27 3.9 39
20:30 1022 30.18 852 25.16 23.4 74.1 28 4.1 39.4
20:35 1022 30.18 852 25.16 23.3 73.9 28 3.7 38.7
20:40 1022 30.18 852 25.16 23.3 73.9 27 3.7 38.6
20:45 1022 30.18 852 25.16 23.3 73.9 27 3.4 38
20:50 1022 30.18 852 25.16 23.3 74 27 3.4 38.1
20:55 1022 30.18 851 25.13 23.3 73.9 27 3.2 37.8
21:00 1022 30.18 851 25.13 23.4 74.1 26 3 37.4
21:05 1022 30.18 851 25.13 23.3 73.9 26 2.7 36.9
21:10 1022 30.18 851 25.13 23.2 73.8 26 2.8 37.1
21:15 1022 30.18 851 25.13 23.2 73.7 26 2.7 36.8
21:20 1022 30.18 852 25.16 23.1 73.6 26 2.7 36.9
21:25 1022 30.18 852 25.16 23 73.4 26 2.8 37
21:30 1022 30.18 852 25.16 23 73.4 26 2.8 37
21:35 1022 30.18 852 25.16 22.9 73.2 27 2.9 37.2
21:40 1022 30.18 852 25.16 22.8 73.1 26 2.7 36.9
21:45 1022 30.18 852 25.16 22.9 73.1 26 2.8 37
21:50 1022 30.18 852 25.16 22.7 72.9 27 3 37.4
21:55 1022 30.18 852 25.16 22.6 72.7 27 2.9 37.3
22:00 1022 30.18 852 25.16 22.5 72.5 27 3 37.4
22:05 1022 30.18 852 25.16 22.5 72.5 28 3.2 37.7
22:10 1023 30.21 852 25.16 22.5 72.4 29 3.9 38.9
22:15 1023 30.21 852 25.16 22.3 72.2 32 5 40.9
22:20 1023 30.21 852 25.16 20.9 69.7 33 4.2 39.5
22:25 1023 30.21 852 25.16 20.6 69.1 33 4 39.1
22:30 1023 30.21 852 25.16 20.6 69.1 33 3.8 38.8
22:35 1023 30.21 852 25.16 20.9 69.6 32 3.6 38.5
22:40 1023 30.21 852 25.16 21.4 70.4 30 3.5 38.3
22:45 1023 30.21 852 25.16 21.8 71.2 30 3.4 38.1
22:50 1023 30.21 852 25.16 22 71.5 29 3.5 38.3
22:55 1023 30.21 852 25.16 22.1 71.7 29 3.6 38.5
23:00 1023 30.21 852 25.16 22.3 72.2 29 3.9 38.9
23:05 1022 30.18 852 25.16 22.2 71.9 30 4.1 39.4
23:10 1022 30.18 852 25.16 22.1 71.7 30 4 39.3
23:15 1022 30.18 852 25.16 21.8 71.3 31 4.1 39.4
23:20 1022 30.18 852 25.16 21.8 71.2 31 4.3 39.7
23:25 1022 30.18 852 25.16 21.7 71.1 31 4.2 39.6
23:30 1022 30.18 852 25.16 21.4 70.4 32 4.2 39.6
23:35 1022 30.18 852 25.16 21.3 70.3 32 4.3 39.7
23:40 1022 30.18 852 25.16 20.6 69.1 34 4.4 39.8
23:45 1022 30.18 852 25.16 20.5 68.8 33 3.9 39
23:50 1022 30.18 852 25.16 20.3 68.6 35 4.4 40
23:55 1022 30.18 852 25.16 20.3 68.5 33 3.7 38.6
24:00 1022 30.18 852 25.16 20.8 69.4 35 5.1 41.2